FMEP/ZSE METAR and TAF weather

Enter ICAO airport designator
Station Type Date Time Source
FMEP METAR 2019/06/18 15:00 UTC NOAA

FMEP 181500Z AUTO 13008KT 090V190 9999 BKN042 BKN049 BKN062 23/15 Q1020 NOSIG


Station Type Date Time Source
FMEP Decoded METAR 2019/06/18 15:00 UTC NOAA

Saint-Pierre, Reunion (FMEP) 21-20S 055-29E 53M
Jun 18, 2019 - 11:00 AM EDT / 2019.06.18 1500 UTC
Wind: from the SE (130 degrees) at 9 MPH (8 KT) (direction variable):0
Visibility: greater than 7 mile(s):0
Sky conditions: mostly cloudy
Temperature: 73 F (23 C)
Dew Point: 59 F (15 C)
Relative Humidity: 60%
Pressure (altimeter): 30.12 in. Hg (1020 hPa)
ob: FMEP 181500Z AUTO 13008KT 090V190 9999 BKN042 BKN049 BKN062 23/15 Q1020 NOSIG
cycle: 15

Station Type Date Time Source
FMEP TAF 2019/05/21 06:00 UTC NOAA

TAF FMEP 210500Z 2106/2115 18005KT 9999 FEW023 BKN210

Example: see airport list